createdAt,value
2018-04-14T00:01:17.519Z,171.80
2018-04-14T00:03:45.091Z,161.47
2018-04-14T00:06:13.387Z,157.73
2018-04-14T00:08:40.919Z,176.97
2018-04-14T00:11:09.259Z,165.90
2018-04-14T00:13:36.773Z,157.63
2018-04-14T00:16:05.061Z,150.40
2018-04-14T00:18:32.647Z,162.30
2018-04-14T00:21:00.162Z,148.77
2018-04-14T00:23:28.466Z,138.80
2018-04-14T00:25:56.025Z,147.50
2018-04-14T00:28:23.807Z,138.97
2018-04-14T00:30:51.338Z,132.90
2018-04-14T00:33:18.872Z,139.27
2018-04-14T00:35:47.252Z,139.07
2018-04-14T00:38:15.547Z,142.20
2018-04-14T00:40:43.132Z,135.63
2018-04-14T00:43:10.659Z,122.93
2018-04-14T00:45:38.183Z,144.83
2018-04-14T00:48:05.736Z,130.53
2018-04-14T00:50:33.359Z,131.47
2018-04-14T00:53:12.755Z,125.43
2018-04-14T00:55:41.047Z,121.27
2018-04-14T00:58:08.570Z,119.63
2018-04-14T01:00:38.554Z,127.07
2018-04-14T01:03:06.070Z,109.70
2018-04-14T01:05:34.367Z,110.43
2018-04-14T01:08:01.948Z,103.97
2018-04-14T01:10:29.503Z,112.50
2018-04-14T01:12:57.044Z,110.47
2018-04-14T01:15:24.596Z,124.33
2018-04-14T01:17:52.164Z,130.60
2018-04-14T01:20:20.239Z,125.17
2018-04-14T01:22:47.793Z,123.37
2018-04-14T01:25:15.339Z,128.80
2018-04-14T01:27:42.867Z,127.10
2018-04-14T01:30:11.187Z,123.63
2018-04-14T01:32:38.752Z,128.60
2018-04-14T01:35:06.285Z,123.20
2018-04-14T01:37:33.839Z,128.10
2018-04-14T01:40:02.145Z,123.57
2018-04-14T01:42:29.665Z,120.70
2018-04-14T01:44:57.988Z,112.80
2018-04-14T01:47:25.532Z,118.10
2018-04-14T01:49:53.067Z,124.13
2018-04-14T01:52:20.650Z,125.67
2018-04-14T01:54:48.219Z,120.33
2018-04-14T01:57:15.751Z,129.80
2018-04-14T01:59:43.306Z,126.90
2018-04-14T02:02:10.887Z,141.60
2018-04-14T02:04:38.447Z,133.87
2018-04-14T02:07:06.116Z,125.27
2018-04-14T02:09:33.653Z,137.20
2018-04-14T02:12:01.182Z,138.40
2018-04-14T02:14:29.595Z,120.73
2018-04-14T02:16:57.126Z,130.50
2018-04-14T02:19:25.410Z,120.37
2018-04-14T02:21:52.990Z,141.77
2018-04-14T02:24:20.525Z,130.47
2018-04-14T02:26:48.059Z,144.43
2018-04-14T02:29:17.202Z,143.17
2018-04-14T02:31:44.744Z,140.50
2018-04-14T02:34:12.298Z,141.93
2018-04-14T02:36:39.868Z,133.93
2018-04-14T02:39:07.725Z,140.33
2018-04-14T02:41:35.258Z,156.23
2018-04-14T02:44:02.801Z,138.83
2018-04-14T02:46:31.844Z,131.33
2018-04-14T02:48:59.381Z,130.97
2018-04-14T02:51:27.696Z,134.00
2018-04-14T02:53:55.249Z,163.13
2018-04-14T02:56:22.806Z,138.30
2018-04-14T02:58:50.366Z,149.90
2018-04-14T03:01:17.893Z,153.13
2018-04-14T03:03:46.184Z,145.20
2018-04-14T03:06:13.740Z,145.57
2018-04-14T03:08:41.264Z,161.20
2018-04-14T03:11:08.801Z,145.43
2018-04-14T03:13:36.373Z,137.37
2018-04-14T03:16:03.933Z,147.37
2018-04-14T03:18:33.090Z,145.33
2018-04-14T03:21:00.647Z,147.53
2018-04-14T03:23:28.156Z,149.53
2018-04-14T03:25:55.689Z,148.37
2018-04-14T03:28:23.335Z,152.50
2018-04-14T03:30:50.862Z,164.27
2018-04-14T03:33:18.487Z,169.30
2018-04-14T03:35:46.113Z,166.70
2018-04-14T03:38:13.656Z,166.97
2018-04-14T03:40:41.173Z,163.30
2018-04-14T03:43:08.774Z,141.97
2018-04-14T03:45:36.287Z,154.27
2018-04-14T03:48:03.892Z,134.60
2018-04-14T03:50:31.449Z,140.20
2018-04-14T03:52:58.988Z,130.67
2018-04-14T03:55:26.505Z,120.83
2018-04-14T03:57:54.120Z,138.20
2018-04-14T04:00:21.626Z,143.50
2018-04-14T04:02:49.149Z,172.47
2018-04-14T04:05:16.702Z,140.10
2018-04-14T04:07:44.277Z,128.30
2018-04-14T04:10:11.813Z,143.90
2018-04-14T04:12:39.374Z,142.90
2018-04-14T04:15:07.038Z,136.93
2018-04-14T04:17:34.603Z,143.60
2018-04-14T04:20:13.911Z,133.10
2018-04-14T04:25:45.037Z,151.27
2018-04-14T04:28:12.582Z,136.00
2018-04-14T04:30:40.375Z,145.27
2018-04-14T04:33:08.708Z,138.53
2018-04-14T04:35:36.236Z,137.13
2018-04-14T04:38:03.765Z,156.20
2018-04-14T04:40:32.087Z,153.63
2018-04-14T04:42:59.640Z,156.57
2018-04-14T04:45:27.161Z,155.73
2018-04-14T04:47:55.494Z,149.37
2018-04-14T04:50:23.369Z,147.47
2018-04-14T04:52:50.903Z,158.80
2018-04-14T04:55:18.463Z,159.80
2018-04-14T04:57:45.978Z,156.53
2018-04-14T05:00:16.044Z,156.27
2018-04-14T05:02:43.645Z,150.47
2018-04-14T05:05:11.255Z,140.43
2018-04-14T05:07:38.792Z,149.47
2018-04-14T05:10:06.380Z,151.67
2018-04-14T05:12:33.921Z,151.17
2018-04-14T05:15:01.450Z,157.37
2018-04-14T05:17:29.767Z,157.83
2018-04-14T05:19:57.276Z,163.00
2018-04-14T05:22:24.885Z,155.73
2018-04-14T05:24:52.431Z,171.30
2018-04-14T05:27:19.945Z,160.13
2018-04-14T05:29:47.474Z,157.87
2018-04-14T05:32:15.017Z,161.70
2018-04-14T05:34:42.535Z,146.23
2018-04-14T05:37:10.125Z,158.67
2018-04-14T05:39:37.680Z,155.97
2018-04-14T05:42:05.197Z,156.90
2018-04-14T05:44:32.724Z,149.43
2018-04-14T05:47:00.287Z,146.47
2018-04-14T05:49:27.805Z,144.67
2018-04-14T05:51:55.331Z,163.37
2018-04-14T05:54:22.950Z,162.23
2018-04-14T05:56:50.501Z,165.43
2018-04-14T05:59:18.022Z,146.57
2018-04-14T06:01:46.450Z,173.07
2018-04-14T06:04:13.970Z,171.77
2018-04-14T06:06:41.504Z,159.53
2018-04-14T06:09:09.084Z,157.27
2018-04-14T06:11:37.386Z,143.10
2018-04-14T06:14:05.147Z,156.23
2018-04-14T06:16:32.690Z,157.93
2018-04-14T06:19:00.211Z,164.90
2018-04-14T06:21:27.741Z,177.70
2018-04-14T06:23:55.287Z,180.67
2018-04-14T06:26:22.814Z,162.17
2018-04-14T06:28:50.349Z,169.37
2018-04-14T06:31:17.884Z,162.23
2018-04-14T06:33:45.449Z,161.20
2018-04-14T06:36:12.966Z,164.90
2018-04-14T06:38:40.504Z,162.03
2018-04-14T06:41:08.802Z,167.40
2018-04-14T06:43:36.364Z,167.10
2018-04-14T06:46:03.911Z,167.43
2018-04-14T06:48:31.496Z,155.50
2018-04-14T06:50:59.040Z,139.00
2018-04-14T06:53:26.618Z,126.83
2018-04-14T06:55:54.182Z,139.40
2018-04-14T06:58:21.818Z,149.63
2018-04-14T07:00:49.368Z,138.33
2018-04-14T07:03:16.929Z,119.43
2018-04-14T07:05:44.500Z,139.97
2018-04-14T07:08:12.053Z,117.10
2018-04-14T07:10:39.630Z,135.27
2018-04-14T07:13:07.156Z,143.03
2018-04-14T07:15:34.696Z,149.60
2018-04-14T07:18:02.984Z,133.37
2018-04-14T07:20:30.554Z,126.37
2018-04-14T07:22:58.855Z,124.43
2018-04-14T07:25:26.373Z,137.70
2018-04-14T07:27:54.664Z,137.57
2018-04-14T07:30:22.215Z,125.63
2018-04-14T07:32:50.115Z,127.13
2018-04-14T07:35:17.638Z,127.27
2018-04-14T07:37:45.194Z,117.83
2018-04-14T07:40:12.722Z,127.40
2018-04-14T07:42:40.333Z,123.30
2018-04-14T07:45:07.891Z,123.77
2018-04-14T07:47:35.552Z,118.50
2018-04-14T07:50:03.069Z,110.87
2018-04-14T07:52:31.398Z,128.43
2018-04-14T07:54:59.031Z,123.03
2018-04-14T07:57:26.619Z,135.90
2018-04-14T07:59:54.200Z,119.70
2018-04-14T08:02:22.645Z,120.30
2018-04-14T08:04:50.166Z,111.70
2018-04-14T08:07:18.499Z,104.33
2018-04-14T08:09:46.020Z,102.80
2018-04-14T08:12:13.596Z,110.27
2018-04-14T08:14:41.134Z,105.23
2018-04-14T08:17:09.417Z,106.43
2018-04-14T08:19:36.951Z,115.07
2018-04-14T08:22:05.264Z,113.50
2018-04-14T08:24:32.783Z,107.83
2018-04-14T08:27:01.645Z,101.37
2018-04-14T08:29:29.190Z,107.57
2018-04-14T08:31:56.725Z,106.50
2018-04-14T08:34:24.247Z,118.70
2018-04-14T08:36:52.660Z,116.73
2018-04-14T08:39:20.192Z,114.50
2018-04-14T08:41:48.489Z,104.33
2018-04-14T08:44:16.065Z,114.57
2018-04-14T08:46:43.627Z,107.30
2018-04-14T08:49:11.164Z,121.73
2018-04-14T08:51:38.713Z,102.67
2018-04-14T08:54:06.298Z,106.83
2018-04-14T08:56:33.868Z,104.50
2018-04-14T08:59:01.424Z,105.43
2018-04-14T09:01:28.951Z,103.17
2018-04-14T09:03:56.479Z,93.77
2018-04-14T09:06:24.902Z,93.67
2018-04-14T09:08:52.440Z,99.93
2018-04-14T09:11:19.970Z,88.73
2018-04-14T09:13:47.595Z,98.87
2018-04-14T09:16:15.139Z,91.17
2018-04-14T09:18:42.672Z,87.43
2018-04-14T09:21:10.248Z,90.00
2018-04-14T09:23:37.819Z,81.03
2018-04-14T09:26:05.336Z,82.43
2018-04-14T09:28:33.764Z,88.53
2018-04-14T09:31:01.316Z,86.17
2018-04-14T09:33:28.857Z,92.30
2018-04-14T09:35:56.426Z,92.67
2018-04-14T09:38:23.999Z,92.90
2018-04-14T09:40:51.749Z,80.30
2018-04-14T09:43:19.330Z,78.27
2018-04-14T09:45:46.841Z,88.33
2018-04-14T09:48:15.138Z,82.40
2018-04-14T09:50:42.692Z,86.83
2018-04-14T09:53:10.259Z,78.17
2018-04-14T09:55:37.776Z,84.80
2018-04-14T09:58:06.141Z,83.77
2018-04-14T10:00:33.680Z,85.10
2018-04-14T10:05:54.985Z,79.90
2018-04-14T10:08:22.858Z,70.73
2018-04-14T10:10:50.414Z,72.80
2018-04-14T10:13:17.968Z,66.53
2018-04-14T10:15:45.531Z,74.70
2018-04-14T10:18:13.045Z,73.80
2018-04-14T10:20:41.688Z,71.13
2018-04-14T10:23:09.227Z,79.50
2018-04-14T10:25:36.749Z,75.47
2018-04-14T10:28:05.032Z,76.30
2018-04-14T10:30:33.351Z,70.43
2018-04-14T10:33:00.900Z,71.50
2018-04-14T10:35:28.650Z,73.57
2018-04-14T10:37:56.291Z,72.87
2018-04-14T10:40:23.761Z,77.30
2018-04-14T10:42:51.284Z,73.10
2018-04-14T10:45:19.706Z,74.13
2018-04-14T10:47:47.222Z,72.13
2018-04-14T10:50:14.774Z,77.33
2018-04-14T10:52:42.407Z,74.30
2018-04-14T10:55:09.932Z,78.20
2018-04-14T10:57:37.469Z,72.87
2018-04-14T11:00:05.879Z,79.00
2018-04-14T11:02:33.398Z,80.23
2018-04-14T11:05:01.904Z,78.47
2018-04-14T11:07:29.481Z,73.50
2018-04-14T11:09:57.041Z,70.80
2018-04-14T11:12:24.566Z,73.33
2018-04-14T11:14:52.150Z,67.40
2018-04-14T11:17:19.713Z,59.67
2018-04-14T11:19:47.240Z,67.57
2018-04-14T11:22:15.754Z,67.97
2018-04-14T11:24:43.274Z,55.80
2018-04-14T11:27:11.568Z,58.27
2018-04-14T11:29:39.121Z,64.13
2018-04-14T11:32:07.524Z,59.27
2018-04-14T11:34:35.091Z,57.90
2018-04-14T11:37:02.643Z,56.50
2018-04-14T11:39:30.158Z,59.73
2018-04-14T11:41:58.481Z,60.17
2018-04-14T11:44:26.035Z,56.47
2018-04-14T11:46:53.564Z,56.17
2018-04-14T11:49:21.866Z,60.10
2018-04-14T11:51:49.421Z,58.93
2018-04-14T11:54:16.990Z,59.33
2018-04-14T11:56:44.557Z,57.70
2018-04-14T11:59:12.118Z,59.83
2018-04-14T12:01:39.643Z,57.20
2018-04-14T12:04:07.218Z,60.60
2018-04-14T12:06:34.777Z,61.90
2018-04-14T12:09:02.317Z,56.17
2018-04-14T12:11:30.720Z,69.97
2018-04-14T12:13:58.278Z,57.60
2018-04-14T12:16:25.809Z,63.20
2018-04-14T12:18:53.334Z,61.20
2018-04-14T12:21:20.899Z,55.20
2018-04-14T12:23:48.496Z,60.73
2018-04-14T12:26:16.022Z,60.33
2018-04-14T12:28:44.455Z,56.80
2018-04-14T12:31:12.106Z,60.17
2018-04-14T12:33:39.641Z,58.93
2018-04-14T12:36:08.157Z,52.37
2018-04-14T12:38:35.714Z,49.00
2018-04-14T12:41:03.236Z,48.33
2018-04-14T12:43:30.913Z,50.30
2018-04-14T12:45:58.444Z,48.20
2018-04-14T12:48:26.874Z,53.83
2018-04-14T12:50:54.430Z,49.00
2018-04-14T12:53:21.949Z,49.13
2018-04-14T12:55:50.271Z,50.67
2018-04-14T12:58:17.911Z,55.20
2018-04-14T13:00:45.438Z,50.23
2018-04-14T13:03:13.715Z,51.07
2018-04-14T13:05:42.067Z,51.73
2018-04-14T13:08:09.607Z,49.90
2018-04-14T13:10:37.150Z,52.40
2018-04-14T13:13:04.711Z,48.17
2018-04-14T13:15:32.244Z,51.77
2018-04-14T13:17:59.758Z,45.53
2018-04-14T13:20:27.324Z,48.40
2018-04-14T13:22:54.846Z,47.53
2018-04-14T13:25:22.381Z,47.27
2018-04-14T13:27:49.933Z,45.03
2018-04-14T13:30:17.445Z,47.37
2018-04-14T13:32:44.961Z,51.67
2018-04-14T13:35:12.522Z,46.17
2018-04-14T13:37:40.130Z,51.93
2018-04-14T13:40:09.177Z,42.70
2018-04-14T13:42:36.743Z,45.77
2018-04-14T13:45:04.340Z,44.40
2018-04-14T13:47:31.864Z,44.73
2018-04-14T13:49:59.436Z,45.37
2018-04-14T13:52:26.977Z,42.73
2018-04-14T13:54:54.595Z,46.40
2018-04-14T13:57:22.127Z,50.83
2018-04-14T13:59:49.761Z,50.43
2018-04-14T14:02:17.294Z,46.40
2018-04-14T14:04:44.852Z,42.43
2018-04-14T14:07:12.385Z,45.50
2018-04-14T14:09:40.697Z,44.33
2018-04-14T14:12:08.358Z,41.07
2018-04-14T14:14:35.901Z,44.37
2018-04-14T14:17:03.422Z,41.77
2018-04-14T14:19:30.975Z,44.10
2018-04-14T14:21:58.490Z,41.70
2018-04-14T14:24:26.050Z,37.63
2018-04-14T14:26:53.609Z,41.13
2018-04-14T14:29:21.130Z,39.67
2018-04-14T14:31:50.113Z,38.60
2018-04-14T14:34:17.658Z,40.67
2018-04-14T14:36:45.182Z,38.93
2018-04-14T14:39:12.697Z,42.17
2018-04-14T14:41:41.106Z,49.30
2018-04-14T14:44:08.625Z,39.73
2018-04-14T14:46:36.134Z,43.63
2018-04-14T14:49:03.674Z,41.87
2018-04-14T14:51:31.221Z,38.60
2018-04-14T14:53:58.764Z,36.50
2018-04-14T14:56:27.281Z,37.87
2018-04-14T14:58:54.804Z,37.03
2018-04-14T15:01:23.115Z,40.53
2018-04-14T15:03:50.686Z,39.50
2018-04-14T15:06:18.221Z,36.97
2018-04-14T15:08:45.784Z,36.87
2018-04-14T15:11:13.415Z,36.40
2018-04-14T15:13:41.702Z,36.70
2018-04-14T15:16:10.023Z,38.27
2018-04-14T15:18:37.571Z,34.53
2018-04-14T15:21:05.083Z,40.23
2018-04-14T15:23:33.397Z,36.90
2018-04-14T15:26:00.968Z,41.87
2018-04-14T15:28:28.482Z,40.57
2018-04-14T15:30:56.789Z,38.67
2018-04-14T15:33:24.345Z,45.50
2018-04-14T15:35:51.920Z,34.43
2018-04-14T15:38:19.453Z,42.73
2018-04-14T15:40:46.996Z,40.90
2018-04-14T15:43:15.277Z,39.20
2018-04-14T15:45:43.578Z,37.87
2018-04-14T15:48:11.137Z,38.97
2018-04-14T15:50:39.112Z,40.10
2018-04-14T15:53:06.667Z,39.97
2018-04-14T15:55:34.215Z,41.87
2018-04-14T15:58:01.915Z,34.83
2018-04-14T16:00:29.413Z,36.53
2018-04-14T16:02:56.979Z,36.47
2018-04-14T16:05:24.559Z,43.30
2018-04-14T16:07:52.093Z,41.80
2018-04-14T16:10:20.409Z,37.20
2018-04-14T16:12:47.941Z,41.57
2018-04-14T16:15:15.517Z,36.90
2018-04-14T16:17:43.069Z,36.50
2018-04-14T16:20:10.637Z,42.57
2018-04-14T16:22:38.195Z,41.17
2018-04-14T16:25:05.757Z,47.10
2018-04-14T16:27:33.319Z,43.73
2018-04-14T16:30:01.001Z,43.40
2018-04-14T16:32:28.620Z,43.37
2018-04-14T16:34:56.148Z,46.10
2018-04-14T16:37:24.443Z,44.30
2018-04-14T16:39:51.995Z,38.20
2018-04-14T16:42:20.301Z,38.53
2018-04-14T16:44:47.863Z,44.70
2018-04-14T16:47:15.513Z,43.87
2018-04-14T16:49:43.029Z,46.20
2018-04-14T16:52:10.591Z,42.40
2018-04-14T16:54:38.914Z,45.57
2018-04-14T16:57:06.429Z,44.60
2018-04-14T16:59:34.741Z,44.20
2018-04-14T17:02:02.299Z,46.87
2018-04-14T17:04:29.813Z,40.87
2018-04-14T17:06:57.417Z,46.00
2018-04-14T17:09:24.952Z,42.83
2018-04-14T17:11:52.542Z,48.10
2018-04-14T17:14:20.081Z,44.60
2018-04-14T17:16:47.651Z,46.00
2018-04-14T17:19:15.193Z,43.50
2018-04-14T17:21:42.750Z,44.47
2018-04-14T17:24:10.340Z,44.10
2018-04-14T17:26:37.860Z,45.03
2018-04-14T17:29:06.209Z,41.77
2018-04-14T17:31:33.770Z,45.13
2018-04-14T17:34:01.308Z,47.20
2018-04-14T17:36:28.949Z,44.97
2018-04-14T17:38:56.522Z,45.63
2018-04-14T17:41:24.082Z,50.93
2018-04-14T17:43:51.734Z,45.60
2018-04-14T17:46:19.686Z,52.20
2018-04-14T17:48:47.254Z,49.60
2018-04-14T17:51:14.802Z,46.70
2018-04-14T17:53:42.369Z,44.43
2018-04-14T17:56:09.899Z,54.93
2018-04-14T17:58:37.443Z,51.20
2018-04-14T18:01:05.756Z,51.97
2018-04-14T18:03:33.283Z,49.93
2018-04-14T18:06:01.585Z,46.70
2018-04-14T18:08:29.148Z,52.13
2018-04-14T18:10:56.675Z,51.97
2018-04-14T18:13:24.979Z,50.97
2018-04-14T18:15:52.540Z,53.10
2018-04-14T18:18:20.087Z,60.97
2018-04-14T18:20:48.035Z,60.53
2018-04-14T18:23:16.712Z,65.77
2018-04-14T18:25:45.047Z,59.23
2018-04-14T18:28:12.584Z,64.23
2018-04-14T18:30:40.132Z,54.60
2018-04-14T18:33:07.671Z,66.70
2018-04-14T18:35:35.958Z,62.27
2018-04-14T18:38:03.554Z,68.37
2018-04-14T18:40:31.092Z,69.80
2018-04-14T18:42:58.660Z,63.57
2018-04-14T18:45:26.225Z,63.97
2018-04-14T18:47:53.751Z,62.67
2018-04-14T18:50:21.270Z,63.33
2018-04-14T18:52:48.812Z,61.97
2018-04-14T18:55:16.357Z,67.17
2018-04-14T18:57:43.911Z,67.70
2018-04-14T19:00:11.479Z,61.73
2018-04-14T19:02:39.022Z,67.33
2018-04-14T19:05:06.560Z,63.83
2018-04-14T19:07:34.151Z,60.93
2018-04-14T19:10:01.665Z,64.40
2018-04-14T19:12:29.969Z,65.77
2018-04-14T19:14:57.535Z,65.00
2018-04-14T19:17:25.067Z,62.37
2018-04-14T19:19:52.603Z,61.33
2018-04-14T19:22:20.184Z,59.70
2018-04-14T19:24:47.719Z,67.03
2018-04-14T19:27:16.029Z,63.17
2018-04-14T19:29:43.623Z,62.67
2018-04-14T19:32:11.171Z,70.47
2018-04-14T19:34:38.707Z,71.73
2018-04-14T19:37:06.276Z,74.20
2018-04-14T19:39:33.884Z,63.33
2018-04-14T19:42:01.400Z,67.07
2018-04-14T19:44:28.959Z,74.13
2018-04-14T19:46:56.507Z,74.50
2018-04-14T19:49:24.109Z,70.07
2018-04-14T19:51:51.745Z,70.63
2018-04-14T19:54:19.309Z,70.67
2018-04-14T19:56:46.823Z,64.90
2018-04-14T19:59:15.133Z,67.50
2018-04-14T20:01:42.686Z,73.87
2018-04-14T20:04:10.220Z,74.90
2018-04-14T20:06:37.789Z,74.07
2018-04-14T20:09:06.223Z,72.17
2018-04-14T20:11:34.516Z,71.00
2018-04-14T20:14:02.842Z,71.20
2018-04-14T20:16:30.367Z,73.93
2018-04-14T20:18:57.894Z,76.77
2018-04-14T20:21:25.548Z,74.77
2018-04-14T20:23:53.067Z,65.00
2018-04-14T20:26:20.620Z,71.57
2018-04-14T20:28:48.259Z,79.70
2018-04-14T20:31:16.556Z,78.07
2018-04-14T20:33:44.192Z,71.23
2018-04-14T20:36:12.612Z,63.77
2018-04-14T20:38:40.155Z,68.47
2018-04-14T20:41:07.766Z,66.07
2018-04-14T20:43:35.997Z,75.27
2018-04-14T20:46:03.511Z,75.50
2018-04-14T20:48:32.628Z,72.10
2018-04-14T20:51:00.175Z,76.03
2018-04-14T20:53:28.519Z,75.57
2018-04-14T20:55:56.052Z,74.93
2018-04-14T20:58:23.616Z,76.73
2018-04-14T21:00:51.163Z,73.43
2018-04-14T21:03:18.678Z,66.10
2018-04-14T21:05:47.096Z,75.93
2018-04-14T21:08:14.632Z,76.63
2018-04-14T21:10:42.146Z,79.57
2018-04-14T21:13:09.781Z,74.67
2018-04-14T21:15:37.327Z,76.53
2018-04-14T21:18:04.888Z,76.33
2018-04-14T21:20:32.433Z,77.13
2018-04-14T21:22:59.971Z,72.67
2018-04-14T21:25:28.261Z,78.60
2018-04-14T21:27:55.818Z,76.10
2018-04-14T21:30:23.409Z,85.87
2018-04-14T21:32:50.945Z,84.90
2018-04-14T21:35:18.486Z,82.53
2018-04-14T21:37:46.799Z,85.30
2018-04-14T21:40:14.349Z,82.90
2018-04-14T21:42:41.885Z,80.63
2018-04-14T21:45:09.462Z,84.37
2018-04-14T21:47:36.972Z,82.47
2018-04-14T21:50:05.294Z,96.73
2018-04-14T21:52:32.823Z,83.20
2018-04-14T21:55:01.133Z,86.80
2018-04-14T21:57:28.684Z,78.20
2018-04-14T21:59:56.211Z,76.93
2018-04-14T22:02:24.494Z,81.53
2018-04-14T22:04:52.830Z,86.37
2018-04-14T22:07:20.363Z,82.07
2018-04-14T22:09:47.924Z,82.13
2018-04-14T22:12:15.496Z,78.33
2018-04-14T22:14:43.037Z,86.90
2018-04-14T22:17:10.567Z,83.93
2018-04-14T22:19:38.898Z,84.80
2018-04-14T22:22:06.436Z,75.90
2018-04-14T22:24:33.989Z,80.47
2018-04-14T22:27:01.650Z,86.83
2018-04-14T22:29:29.213Z,86.70
2018-04-14T22:31:56.743Z,87.00
2018-04-14T22:34:24.278Z,83.87
2018-04-14T22:36:51.793Z,87.73
2018-04-14T22:39:19.325Z,77.33
2018-04-14T22:41:46.880Z,80.47
2018-04-14T22:44:14.397Z,75.13
2018-04-14T22:46:41.918Z,75.80
2018-04-14T22:49:09.476Z,74.60
2018-04-14T22:51:36.992Z,76.93
2018-04-14T22:54:05.306Z,78.47
2018-04-14T22:56:32.845Z,76.73
2018-04-14T22:59:00.361Z,77.80
2018-04-14T23:01:27.985Z,78.90
2018-04-14T23:03:55.536Z,83.90
2018-04-14T23:06:23.104Z,73.13
2018-04-14T23:08:50.622Z,77.43
2018-04-14T23:11:18.934Z,85.37
2018-04-14T23:13:46.471Z,81.77
2018-04-14T23:16:14.046Z,82.73
2018-04-14T23:18:41.591Z,79.17
2018-04-14T23:21:09.163Z,82.20
2018-04-14T23:23:36.673Z,85.93
2018-04-14T23:26:04.226Z,86.40
2018-04-14T23:28:31.976Z,78.43
2018-04-14T23:30:59.566Z,83.17
2018-04-14T23:33:27.893Z,82.93
2018-04-14T23:35:55.413Z,80.13
2018-04-14T23:38:23.012Z,81.87
2018-04-14T23:40:50.668Z,78.33
2018-04-14T23:43:18.216Z,80.30
2018-04-14T23:45:45.995Z,74.07
2018-04-14T23:48:13.542Z,78.47
2018-04-14T23:50:41.685Z,76.30
2018-04-14T23:53:09.991Z,83.97
2018-04-14T23:55:37.537Z,77.97
2018-04-14T23:58:05.049Z,81.80
